Terminal Aerodrome Forecast
Issued by NWS

Home | Current Version | Previous Version | Text Only | Print | Product List | Glossary On
Versions: 1 2 3 4 5 6 7 8 9 10 11 12 13 14
000
FTUS46 KLOX 192017 AAA
TAFWJF
TAF AMD
KWJF 192017Z 1920/2018 27022G32KT 4SM BLDU BKN250
     FM200200 26018KT P6SM BKN120
     FM201000 26018G25KT P6SM SCT050 BKN100
     FM201500 29022G32KT P6SM SCT150=

USA.gov is the U.S. government's official web portal to all federal, state and local government web resources and services.